KROA/ROA METAR and TAF weather

Enter ICAO airport designator
Station Type Date Time Source
KROA METAR 2022/07/01 00:54 UTC NOAA

KROA 010054Z 18004KT 10SM SCT060 BKN095 29/19 A3019 RMK AO2 SLP210 T02940189


Station Type Date Time Source
KROA Decoded METAR 2022/07/01 00:54 UTC NOAA

ROANOKE REGIONAL AIRPORT, VA, United States (KROA) 37-19N 079-58W 362M
Jun 30, 2022 - 08:54 PM EDT / 2022.07.01 0054 UTC
Wind: from the S (180 degrees) at 5 MPH (4 KT):0
Visibility: 10 mile(s):0
Sky conditions: mostly cloudy
Temperature: 84.9 F (29.4 C)
Dew Point: 66.0 F (18.9 C)
Relative Humidity: 53%
Pressure (altimeter): 30.19 in. Hg (1022 hPa)
ob: KROA 010054Z 18004KT 10SM SCT060 BKN095 29/19 A3019 RMK AO2 SLP210 T02940189
cycle: 1

Station Type Date Time Source
KROA TAF 2022/06/30 18:40 UTC NOAA

TAF KROA 301738Z 3018/0118 15005KT P6SM VCSH FEW040 SCT070
FM302100 16007KT P6SM VCTS SCT040CB BKN080
FM010000 VRB03KT P6SM SCT080
FM011600 18005KT P6SM FEW080

Example: see airport list